sensor_id;sensor_type;location;lat;lon;timestamp;pressure;altitude;pressure_sealevel;temperature;humidity
76044;BME280;64740;34.694;33.088;2023-01-08T00:00:12;1043;;;18.9;56.8
76044;BME280;64740;34.694;33.088;2023-01-08T00:05:00;1043;;;18.9;56.8
76044;BME280;64740;34.694;33.088;2023-01-08T00:09:58;1042.9;;;18.9;56.7
76044;BME280;64740;34.694;33.088;2023-01-08T00:15:02;1042.8;;;18.9;56.6
76044;BME280;64740;34.694;33.088;2023-01-08T00:20:12;1042.8;;;18.9;56.4
76044;BME280;64740;34.694;33.088;2023-01-08T00:25:22;1042.7;;;18.8;56.3
76044;BME280;64740;34.694;33.088;2023-01-08T00:30:20;1042.7;;;18.8;56.3
76044;BME280;64740;34.694;33.088;2023-01-08T00:35:00;1042.7;;;18.8;56.3
76044;BME280;64740;34.694;33.088;2023-01-08T00:39:40;1042.7;;;18.7;56.4
76044;BME280;64740;34.694;33.088;2023-01-08T00:45:20;1042.7;;;18.6;56.4
76044;BME280;64740;34.694;33.088;2023-01-08T00:50:12;1042.7;;;18.6;56.5
76044;BME280;64740;34.694;33.088;2023-01-08T00:55:00;1042.7;;;18.6;56.5
76044;BME280;64740;34.694;33.088;2023-01-08T01:00:11;1042.7;;;18.6;56.4
76044;BME280;64740;34.694;33.088;2023-01-08T01:05:12;1042.6;;;18.5;56.3
76044;BME280;64740;34.694;33.088;2023-01-08T01:10:20;1042.6;;;18.5;56.2
76044;BME280;64740;34.694;33.088;2023-01-08T01:14:40;1042.6;;;18.5;56.2
76044;BME280;64740;34.694;33.088;2023-01-08T01:19:58;1042.5;;;18.5;56.2
76044;BME280;64740;34.694;33.088;2023-01-08T01:24:58;1042.5;;;18.4;56.1
76044;BME280;64740;34.694;33.088;2023-01-08T01:29:48;1042.4;;;18.4;56.1
76044;BME280;64740;34.694;33.088;2023-01-08T01:35:20;1042.3;;;18.4;55.9
76044;BME280;64740;34.694;33.088;2023-01-08T01:39:56;1042.3;;;18.4;55.9
76044;BME280;64740;34.694;33.088;2023-01-08T01:44:48;1042.3;;;18.3;55.8
76044;BME280;64740;34.694;33.088;2023-01-08T01:50:12;1042.2;;;18.3;55.7
76044;BME280;64740;34.694;33.088;2023-01-08T01:55:10;1042.2;;;18.3;55.7
76044;BME280;64740;34.694;33.088;2023-01-08T02:00:12;1042.2;;;18.2;55.4
76044;BME280;64740;34.694;33.088;2023-01-08T02:04:48;1042.2;;;18.2;55.4
76044;BME280;64740;34.694;33.088;2023-01-08T02:09:41;1042.1;;;18.1;55.4
76044;BME280;64740;34.694;33.088;2023-01-08T02:15:02;1042.1;;;18.1;55.4
76044;BME280;64740;34.694;33.088;2023-01-08T02:19:41;1042.1;;;18.1;55.3
76044;BME280;64740;34.694;33.088;2023-01-08T02:25:28;1042;;;18.1;55.2
76044;BME280;64740;34.694;33.088;2023-01-08T02:29:40;1042;;;18.1;55.2
76044;BME280;64740;34.694;33.088;2023-01-08T02:34:40;1041.9;;;18;55.1
76044;BME280;64740;34.694;33.088;2023-01-08T02:40:00;1041.9;;;18;55
76044;BME280;64740;34.694;33.088;2023-01-08T02:45:15;1041.9;;;17.9;54.9
76044;BME280;64740;34.694;33.088;2023-01-08T02:50:25;1041.9;;;17.8;54.8
76044;BME280;64740;34.694;33.088;2023-01-08T02:54:40;1041.9;;;17.8;54.8
76044;BME280;64740;34.694;33.088;2023-01-08T03:00:03;1041.9;;;17.8;54.9
76044;BME280;64740;34.694;33.088;2023-01-08T03:04:51;1041.8;;;17.8;54.7
76044;BME280;64740;34.694;33.088;2023-01-08T03:09:52;1041.8;;;17.8;54.6
76044;BME280;64740;34.694;33.088;2023-01-08T03:15:23;1041.9;;;17.8;54.4
76044;BME280;64740;34.694;33.088;2023-01-08T03:20:00;1041.9;;;17.8;54.4
76044;BME280;64740;34.694;33.088;2023-01-08T03:24:58;1041.9;;;17.8;54.4
76044;BME280;64740;34.694;33.088;2023-01-08T03:30:14;1041.9;;;17.7;54
76044;BME280;64740;34.694;33.088;2023-01-08T03:35:14;1042;;;17.6;54
76044;BME280;64740;34.694;33.088;2023-01-08T03:40:25;1042;;;17.6;53.9
76044;BME280;64740;34.694;33.088;2023-01-08T03:44:52;1042;;;17.6;53.9
76044;BME280;64740;34.694;33.088;2023-01-08T03:50:05;1042;;;17.6;53.8
76044;BME280;64740;34.694;33.088;2023-01-08T03:55:02;1042;;;17.6;53.5
76044;BME280;64740;34.694;33.088;2023-01-08T03:59:40;1042.1;;;17.6;53.7
76044;BME280;64740;34.694;33.088;2023-01-08T04:05:24;1042;;;17.6;53.5
76044;BME280;64740;34.694;33.088;2023-01-08T04:10:02;1042;;;17.6;53.5
76044;BME280;64740;34.694;33.088;2023-01-08T04:14:52;1042;;;17.6;53.2
76044;BME280;64740;34.694;33.088;2023-01-08T04:20:06;1042.1;;;17.6;53.2
76044;BME280;64740;34.694;33.088;2023-01-08T04:25:16;1042.1;;;17.6;52.9
76044;BME280;64740;34.694;33.088;2023-01-08T04:30:24;1042.1;;;17.6;52.8
76044;BME280;64740;34.694;33.088;2023-01-08T04:34:40;1042.1;;;17.6;52.8
76044;BME280;64740;34.694;33.088;2023-01-08T04:40:00;1042.1;;;17.6;53
76044;BME280;64740;34.694;33.088;2023-01-08T04:45:04;1042.1;;;17.6;52.9
76044;BME280;64740;34.694;33.088;2023-01-08T04:49:40;1042.1;;;17.6;52.7
76044;BME280;64740;34.694;33.088;2023-01-08T04:55:24;1042.2;;;17.6;52.6
76044;BME280;64740;34.694;33.088;2023-01-08T04:59:40;1042.2;;;17.6;52.6
76044;BME280;64740;34.694;33.088;2023-01-08T05:05:04;1042.3;;;17.6;52.6
76044;BME280;64740;34.694;33.088;2023-01-08T05:10:14;1042.3;;;17.6;52.1
76044;BME280;64740;34.694;33.088;2023-01-08T05:15:14;1042.3;;;17.6;51.9
76044;BME280;64740;34.694;33.088;2023-01-08T05:20:24;1042.2;;;17.7;51.8
76044;BME280;64740;34.694;33.088;2023-01-08T05:24:40;1042.2;;;17.7;51.8
76044;BME280;64740;34.694;33.088;2023-01-08T05:30:26;1042.2;;;17.8;51.4
76044;BME280;64740;34.694;33.088;2023-01-08T05:34:50;1042.2;;;17.8;51.4
76044;BME280;64740;34.694;33.088;2023-01-08T05:39:40;1042.2;;;17.8;51.4
76044;BME280;64740;34.694;33.088;2023-01-08T05:45:22;1042.2;;;17.9;51.3
76044;BME280;64740;34.694;33.088;2023-01-08T05:50:00;1042.2;;;17.9;51.3
76044;BME280;64740;34.694;33.088;2023-01-08T05:54:50;1042.2;;;18;51.1
76044;BME280;64740;34.694;33.088;2023-01-08T06:00:16;1042.3;;;18.1;50.7
76044;BME280;64740;34.694;33.088;2023-01-08T06:04:54;1042.3;;;18.1;50.7
76044;BME280;64740;34.694;33.088;2023-01-08T06:10:22;1042.4;;;18.3;50.5
76044;BME280;64740;34.694;33.088;2023-01-08T06:15:12;1042.4;;;18.4;50.4
76044;BME280;64740;34.694;33.088;2023-01-08T06:20:14;1042.4;;;18.5;50.2
76044;BME280;64740;34.694;33.088;2023-01-08T06:25:02;1042.4;;;18.5;50.2
76044;BME280;64740;34.694;33.088;2023-01-08T06:29:48;1042.3;;;18.6;49.9
76044;BME280;64740;34.694;33.088;2023-01-08T06:35:24;1042.4;;;18.8;49.7
76044;BME280;64740;34.694;33.088;2023-01-08T06:39:48;1042.4;;;18.8;49.7
76044;BME280;64740;34.694;33.088;2023-01-08T06:45:04;1042.5;;;18.9;49.7
76044;BME280;64740;34.694;33.088;2023-01-08T06:50:16;1042.5;;;19.3;49.4
76044;BME280;64740;34.694;33.088;2023-01-08T06:55:16;1042.5;;;19.5;49.3
76044;BME280;64740;34.694;33.088;2023-01-08T07:00:26;1042.5;;;19.7;49.2
76044;BME280;64740;34.694;33.088;2023-01-08T07:04:50;1042.5;;;19.7;49.2
76044;BME280;64740;34.694;33.088;2023-01-08T07:10:26;1042.6;;;20;49.2
76044;BME280;64740;34.694;33.088;2023-01-08T07:15:06;1042.6;;;20;49.2
76044;BME280;64740;34.694;33.088;2023-01-08T07:20:04;1042.6;;;20;49.2
76044;BME280;64740;34.694;33.088;2023-01-08T07:25:12;1042.5;;;20.1;49.3
76044;BME280;64740;34.694;33.088;2023-01-08T07:29:48;1042.5;;;20.1;49.3
76044;BME280;64740;34.694;33.088;2023-01-08T07:34:50;1042.5;;;20.1;49.2
76044;BME280;64740;34.694;33.088;2023-01-08T07:40:14;1042.5;;;20.2;49.2
76044;BME280;64740;34.694;33.088;2023-01-08T07:45:16;1042.5;;;20.4;48.9
76044;BME280;64740;34.694;33.088;2023-01-08T07:50:26;1042.5;;;20.5;48.5
76044;BME280;64740;34.694;33.088;2023-01-08T07:54:40;1042.5;;;20.5;48.5
76044;BME280;64740;34.694;33.088;2023-01-08T08:00:16;1042.3;;;20.9;48.2
76044;BME280;64740;34.694;33.088;2023-01-08T08:05:02;1042.3;;;20.9;48.2
76044;BME280;64740;34.694;33.088;2023-01-08T08:09:52;1042.3;;;20.9;48
76044;BME280;64740;34.694;33.088;2023-01-08T08:15:26;1042.2;;;21.1;47.7
76044;BME280;64740;34.694;33.088;2023-01-08T08:20:02;1042.2;;;21.1;47.7
76044;BME280;64740;34.694;33.088;2023-01-08T08:24:40;1042.2;;;21.1;47.7
76044;BME280;64740;34.694;33.088;2023-01-08T08:30:04;1042.1;;;21.1;47.7
76044;BME280;64740;34.694;33.088;2023-01-08T08:35:14;1042;;;21.1;46.9
76044;BME280;64740;34.694;33.088;2023-01-08T08:40:25;1041.9;;;21.2;46.8
76044;BME280;64740;34.694;33.088;2023-01-08T08:44:40;1041.9;;;21.2;46.8
76044;BME280;64740;34.694;33.088;2023-01-08T08:50:14;1041.9;;;21.4;46.4
76044;BME280;64740;34.694;33.088;2023-01-08T08:55:14;1041.8;;;21.6;46
76044;BME280;64740;34.694;33.088;2023-01-08T08:59:48;1041.8;;;21.6;46
76044;BME280;64740;34.694;33.088;2023-01-08T09:05:24;1041.6;;;21.9;45.3
76044;BME280;64740;34.694;33.088;2023-01-08T09:10:00;1041.6;;;21.9;45.3
76044;BME280;64740;34.694;33.088;2023-01-08T09:14:52;1041.6;;;22;45.1
76044;BME280;64740;34.694;33.088;2023-01-08T09:20:14;1041.5;;;22;44.9
76044;BME280;64740;34.694;33.088;2023-01-08T09:25:16;1041.4;;;21.9;44.9
76044;BME280;64740;34.694;33.088;2023-01-08T09:30:24;1041.3;;;21.9;45
76044;BME280;64740;34.694;33.088;2023-01-08T09:34:52;1041.3;;;21.9;45
76044;BME280;64740;34.694;33.088;2023-01-08T09:40:14;1041.1;;;21.9;45
76044;BME280;64740;34.694;33.088;2023-01-08T09:45:04;1041.1;;;21.9;45
76044;BME280;64740;34.694;33.088;2023-01-08T09:49:53;1041;;;22;45.2
76044;BME280;64740;34.694;33.088;2023-01-08T09:55:20;1040.9;;;22;44.2
76044;BME280;64740;34.694;33.088;2023-01-08T10:00:00;1040.9;;;22;44.2
76044;BME280;64740;34.694;33.088;2023-01-08T10:05:24;1040.8;;;22;44.4
76044;BME280;64740;34.694;33.088;2023-01-08T10:09:48;1040.8;;;22;44.4
76044;BME280;64740;34.694;33.088;2023-01-08T10:15:11;1040.7;;;22.1;43.8
76044;BME280;64740;34.694;33.088;2023-01-08T10:20:04;1040.6;;;22.3;43.7
76044;BME280;64740;34.694;33.088;2023-01-08T10:25:11;1040.6;;;22.5;43.4
76044;BME280;64740;34.694;33.088;2023-01-08T10:30:27;1040.6;;;22.9;43.4
76044;BME280;64740;34.694;33.088;2023-01-08T10:35:13;1040.5;;;23.3;42.7
76044;BME280;64740;34.694;33.088;2023-01-08T10:39:43;1040.5;;;23.3;42.7
76044;BME280;64740;34.694;33.088;2023-01-08T10:45:01;1040.5;;;23.6;42.1
76044;BME280;64740;34.694;33.088;2023-01-08T10:49:40;1040.4;;;23.7;41.5
76044;BME280;64740;34.694;33.088;2023-01-08T10:55:23;1040.2;;;24.1;40.2
76044;BME280;64740;34.694;33.088;2023-01-08T10:59:52;1040.2;;;24.1;40.2
76044;BME280;64740;34.694;33.088;2023-01-08T11:05:10;1040.2;;;24.4;40.1
76044;BME280;64740;34.694;33.088;2023-01-08T11:10:21;1040.1;;;24.7;39
76044;BME280;64740;34.694;33.088;2023-01-08T11:15:00;1040.1;;;24.7;39
76044;BME280;64740;34.694;33.088;2023-01-08T11:20:23;1040;;;24;39.3
76044;BME280;64740;34.694;33.088;2023-01-08T11:25:16;1040;;;23.7;39.6
76044;BME280;64740;34.694;33.088;2023-01-08T11:30:15;1039.9;;;23.5;39.9
76044;BME280;64740;34.694;33.088;2023-01-08T11:35:07;1039.9;;;23.5;39.9
76044;BME280;64740;34.694;33.088;2023-01-08T11:39:40;1039.9;;;23.4;40
76044;BME280;64740;34.694;33.088;2023-01-08T11:45:23;1039.8;;;23.2;40.1
76044;BME280;64740;34.694;33.088;2023-01-08T11:50:16;1039.8;;;23.3;40.2
76044;BME280;64740;34.694;33.088;2023-01-08T11:55:15;1039.7;;;23.4;39.6
76044;BME280;64740;34.694;33.088;2023-01-08T11:59:48;1039.7;;;23.4;39.6
76044;BME280;64740;34.694;33.088;2023-01-08T12:04:54;1039.7;;;23.5;39.2
76044;BME280;64740;34.694;33.088;2023-01-08T12:10:22;1039.7;;;23.7;39.2
76044;BME280;64740;34.694;33.088;2023-01-08T12:15:14;1039.7;;;23.5;39.4
76044;BME280;64740;34.694;33.088;2023-01-08T12:20:00;1039.7;;;23.5;39.4
76044;BME280;64740;34.694;33.088;2023-01-08T12:25:21;1039.8;;;23.4;39.7
76044;BME280;64740;34.694;33.088;2023-01-08T12:30:15;1039.7;;;23.1;41
76044;BME280;64740;34.694;33.088;2023-01-08T12:35:25;1039.7;;;22.9;41.4
76044;BME280;64740;34.694;33.088;2023-01-08T12:39:42;1039.7;;;22.9;41.4
76044;BME280;64740;34.694;33.088;2023-01-08T12:45:15;1039.7;;;22.6;41.4
76044;BME280;64740;34.694;33.088;2023-01-08T12:50:04;1039.7;;;22.6;41.4
76044;BME280;64740;34.694;33.088;2023-01-08T12:54:42;1039.8;;;22.8;40.9
76044;BME280;64740;34.694;33.088;2023-01-08T13:00:25;1039.8;;;22.7;41.5
76044;BME280;64740;34.694;33.088;2023-01-08T13:05:27;1039.8;;;22.6;41.9
76044;BME280;64740;34.694;33.088;2023-01-08T13:09:40;1039.8;;;22.6;41.9
76044;BME280;64740;34.694;33.088;2023-01-08T13:14:40;1039.9;;;22.7;42
76044;BME280;64740;34.694;33.088;2023-01-08T13:19:51;1039.9;;;23.5;41
76044;BME280;64740;34.694;33.088;2023-01-08T13:25:08;1039.8;;;24;40.1
76044;BME280;64740;34.694;33.088;2023-01-08T13:29:40;1039.8;;;24.5;39.6
76044;BME280;64740;34.694;33.088;2023-01-08T13:35:18;1039.9;;;25.2;38.1
76044;BME280;64740;34.694;33.088;2023-01-08T13:40:33;1039.9;;;25.2;38.1
76044;BME280;64740;34.694;33.088;2023-01-08T13:44:40;1039.9;;;24.7;38.8
76044;BME280;64740;34.694;33.088;2023-01-08T13:50:13;1039.9;;;24.2;39.4
76044;BME280;64740;34.694;33.088;2023-01-08T13:55:15;1039.9;;;24.1;40
76044;BME280;64740;34.694;33.088;2023-01-08T14:00:23;1039.9;;;24.1;40.1
76044;BME280;64740;34.694;33.088;2023-01-08T14:05:10;1039.9;;;24.1;40.1
76044;BME280;64740;34.694;33.088;2023-01-08T14:09:52;1039.9;;;24.2;40.2
76044;BME280;64740;34.694;33.088;2023-01-08T14:15:08;1040;;;24;40.8
76044;BME280;64740;34.694;33.088;2023-01-08T14:19:54;1040.1;;;23.6;41.7
76044;BME280;64740;34.694;33.088;2023-01-08T14:25:13;1040.1;;;22.7;42.8
76044;BME280;64740;34.694;33.088;2023-01-08T14:30:22;1040.1;;;22.4;43.6
76044;BME280;64740;34.694;33.088;2023-01-08T14:34:40;1040.1;;;22.4;43.6
76044;BME280;64740;34.694;33.088;2023-01-08T14:40:27;1040.1;;;21.8;44.7
76044;BME280;64740;34.694;33.088;2023-01-08T14:45:15;1040.1;;;21.6;44.9
76044;BME280;64740;34.694;33.088;2023-01-08T14:50:22;1040.1;;;21.4;45.1
76044;BME280;64740;34.694;33.088;2023-01-08T14:55:22;1040.1;;;21.2;45.7
76044;BME280;64740;34.694;33.088;2023-01-08T15:00:02;1040.1;;;21.2;45.7
76044;BME280;64740;34.694;33.088;2023-01-08T15:05:26;1040.1;;;21;48.2
76044;BME280;64740;34.694;33.088;2023-01-08T15:09:54;1040.1;;;21;48.2
76044;BME280;64740;34.694;33.088;2023-01-08T15:15:09;1040.1;;;21;48.5
76044;BME280;64740;34.694;33.088;2023-01-08T15:20:21;1040.2;;;20.8;47
76044;BME280;64740;34.694;33.088;2023-01-08T15:24:40;1040.2;;;20.8;47
76044;BME280;64740;34.694;33.088;2023-01-08T15:30:23;1040.2;;;20.7;46.6
76044;BME280;64740;34.694;33.088;2023-01-08T15:35:15;1040.3;;;20.6;46.6
76044;BME280;64740;34.694;33.088;2023-01-08T15:40:14;1040.3;;;20.6;46.6
76044;BME280;64740;34.694;33.088;2023-01-08T15:45:05;1040.3;;;20.6;46.6
76044;BME280;64740;34.694;33.088;2023-01-08T15:50:02;1040.3;;;20.5;46.8
76044;BME280;64740;34.694;33.088;2023-01-08T15:55:23;1040.3;;;20.4;46.9
76044;BME280;64740;34.694;33.088;2023-01-08T15:59:40;1040.3;;;20.4;46.9
76044;BME280;64740;34.694;33.088;2023-01-08T16:04:50;1040.3;;;20.4;47.1
76044;BME280;64740;34.694;33.088;2023-01-08T16:10:12;1040.3;;;20.4;46.9
76044;BME280;64740;34.694;33.088;2023-01-08T16:15:00;1040.3;;;20.4;46.9
76044;BME280;64740;34.694;33.088;2023-01-08T16:20:22;1040.3;;;20.2;47.1
76044;BME280;64740;34.694;33.088;2023-01-08T16:25:16;1040.3;;;20.1;47.2
76044;BME280;64740;34.694;33.088;2023-01-08T16:30:22;1040.4;;;20;47.4
76044;BME280;64740;34.694;33.088;2023-01-08T16:34:50;1040.4;;;20;47.4
76044;BME280;64740;34.694;33.088;2023-01-08T16:40:02;1040.4;;;20;47.3
76044;BME280;64740;34.694;33.088;2023-01-08T16:45:20;1040.5;;;20;47.3
76044;BME280;64740;34.694;33.088;2023-01-08T16:49:40;1040.5;;;20;47.3
76044;BME280;64740;34.694;33.088;2023-01-08T16:55:05;1040.5;;;20;47.2
76044;BME280;64740;34.694;33.088;2023-01-08T17:00:14;1040.6;;;20;47
76044;BME280;64740;34.694;33.088;2023-01-08T17:04:40;1040.6;;;20;47
76044;BME280;64740;34.694;33.088;2023-01-08T17:10:20;1040.7;;;19.9;46.9
76044;BME280;64740;34.694;33.088;2023-01-08T17:14:48;1040.7;;;19.9;46.9
76044;BME280;64740;34.694;33.088;2023-01-08T17:20:14;1040.7;;;20;46.5
76044;BME280;64740;34.694;33.088;2023-01-08T17:25:14;1040.7;;;19.9;46.6
76044;BME280;64740;34.694;33.088;2023-01-08T17:30:00;1040.7;;;19.9;46.6
76044;BME280;64740;34.694;33.088;2023-01-08T17:35:22;1040.8;;;19.9;46.3
76044;BME280;64740;34.694;33.088;2023-01-08T17:39:38;1040.8;;;19.9;46.3
76044;BME280;64740;34.694;33.088;2023-01-08T17:44:55;1040.9;;;19.9;46.3
76044;BME280;64740;34.694;33.088;2023-01-08T17:50:15;1040.9;;;19.9;46.1
76044;BME280;64740;34.694;33.088;2023-01-08T17:54:40;1040.9;;;19.9;46.1
76044;BME280;64740;34.694;33.088;2023-01-08T18:00:24;1040.9;;;19.8;46.1
76044;BME280;64740;34.694;33.088;2023-01-08T18:05:14;1041;;;19.8;46.1
76044;BME280;64740;34.694;33.088;2023-01-08T18:10:14;1041;;;19.8;46
76044;BME280;64740;34.694;33.088;2023-01-08T18:14:52;1041;;;19.8;46
76044;BME280;64740;34.694;33.088;2023-01-08T18:20:14;1041.1;;;19.6;46.1
76044;BME280;64740;34.694;33.088;2023-01-08T18:25:24;1041.1;;;19.6;46.3
76044;BME280;64740;34.694;33.088;2023-01-08T18:29:38;1041.1;;;19.6;46.3
76044;BME280;64740;34.694;33.088;2023-01-08T18:34:58;1041.1;;;19.5;46.5
76044;BME280;64740;34.694;33.088;2023-01-08T18:40:10;1041.1;;;19.5;46.7
76044;BME280;64740;34.694;33.088;2023-01-08T18:44:40;1041.1;;;19.5;46.7
76044;BME280;64740;34.694;33.088;2023-01-08T18:50:22;1041.1;;;19.4;46.8
76044;BME280;64740;34.694;33.088;2023-01-08T18:55:14;1041.1;;;19.4;47
76044;BME280;64740;34.694;33.088;2023-01-08T18:59:42;1041.1;;;19.4;47
76044;BME280;64740;34.694;33.088;2023-01-08T19:04:52;1041.1;;;19.5;46.8
76044;BME280;64740;34.694;33.088;2023-01-08T19:10:01;1041.2;;;19.4;46.8
76044;BME280;64740;34.694;33.088;2023-01-08T19:15:20;1041.2;;;19.3;46.9
76044;BME280;64740;34.694;33.088;2023-01-08T19:19:46;1041.2;;;19.3;46.9
76044;BME280;64740;34.694;33.088;2023-01-08T19:25:02;1041.2;;;19.3;46.9
76044;BME280;64740;34.694;33.088;2023-01-08T19:30:20;1041.2;;;19.2;46.6
76044;BME280;64740;34.694;33.088;2023-01-08T19:34:38;1041.2;;;19.2;46.6
76044;BME280;64740;34.694;33.088;2023-01-08T19:40:12;1041.2;;;19.2;46.4
76044;BME280;64740;34.694;33.088;2023-01-08T19:45:12;1041.2;;;19.2;46.3
76044;BME280;64740;34.694;33.088;2023-01-08T19:49:50;1041.2;;;19.2;46.3
76044;BME280;64740;34.694;33.088;2023-01-08T19:54:38;1041.2;;;19.2;46.2
76044;BME280;64740;34.694;33.088;2023-01-08T20:00:20;1041.2;;;19.2;46.3
76044;BME280;64740;34.694;33.088;2023-01-08T20:05:22;1041.2;;;19.1;46.3
76044;BME280;64740;34.694;33.088;2023-01-08T20:09:50;1041.2;;;19.1;46.3
76044;BME280;64740;34.694;33.088;2023-01-08T20:15:00;1041.2;;;19.1;46.4
76044;BME280;64740;34.694;33.088;2023-01-08T20:20:22;1041.2;;;19;46.6
76044;BME280;64740;34.694;33.088;2023-01-08T20:25:02;1041.2;;;19;46.6
76044;BME280;64740;34.694;33.088;2023-01-08T20:30:12;1041.2;;;19;46.6
76044;BME280;64740;34.694;33.088;2023-01-08T20:35:12;1041.2;;;19;46.4
76044;BME280;64740;34.694;33.088;2023-01-08T20:39:38;1041.2;;;19;46.4
76044;BME280;64740;34.694;33.088;2023-01-08T20:45:00;1041.2;;;19;46.4
76044;BME280;64740;34.694;33.088;2023-01-08T20:50:20;1041.2;;;19;46.3
76044;BME280;64740;34.694;33.088;2023-01-08T20:55:16;1041.2;;;18.9;46.3
76044;BME280;64740;34.694;33.088;2023-01-08T21:00:22;1041.2;;;18.9;46.4
76044;BME280;64740;34.694;33.088;2023-01-08T21:05:00;1041.2;;;18.9;46.4
76044;BME280;64740;34.694;33.088;2023-01-08T21:10:24;1041.3;;;18.9;46.4
76044;BME280;64740;34.694;33.088;2023-01-08T21:14:50;1041.3;;;18.9;46.4
76044;BME280;64740;34.694;33.088;2023-01-08T21:20:16;1041.4;;;18.9;46.1
76044;BME280;64740;34.694;33.088;2023-01-08T21:25:14;1041.4;;;18.9;46.2
76044;BME280;64740;34.694;33.088;2023-01-08T21:29:40;1041.4;;;18.9;46.2
76044;BME280;64740;34.694;33.088;2023-01-08T21:34:52;1041.4;;;18.9;46.2
76044;BME280;64740;34.694;33.088;2023-01-08T21:40:22;1041.4;;;18.8;46.3
76044;BME280;64740;34.694;33.088;2023-01-08T21:45:24;1041.4;;;18.8;46.2
76044;BME280;64740;34.694;33.088;2023-01-08T21:49:52;1041.4;;;18.8;46.2
76044;BME280;64740;34.694;33.088;2023-01-08T21:55:24;1041.4;;;18.8;46.1
76044;BME280;64740;34.694;33.088;2023-01-08T22:00:26;1041.3;;;18.7;46.1
76044;BME280;64740;34.694;33.088;2023-01-08T22:04:40;1041.3;;;18.7;46.1
76044;BME280;64740;34.694;33.088;2023-01-08T22:10:16;1041.2;;;18.7;46.1
76044;BME280;64740;34.694;33.088;2023-01-08T22:15:14;1041.2;;;18.7;46.4
76044;BME280;64740;34.694;33.088;2023-01-08T22:19:52;1041.2;;;18.7;46.4
76044;BME280;64740;34.694;33.088;2023-01-08T22:24:52;1041.2;;;18.7;46.5
76044;BME280;64740;34.694;33.088;2023-01-08T22:30:26;1041.1;;;18.7;46.4
76044;BME280;64740;34.694;33.088;2023-01-08T22:35:24;1041.1;;;18.7;46.4
76044;BME280;64740;34.694;33.088;2023-01-08T22:39:40;1041.1;;;18.7;46.4
76044;BME280;64740;34.694;33.088;2023-01-08T22:44:52;1041.1;;;18.6;46.6
76044;BME280;64740;34.694;33.088;2023-01-08T22:50:24;1041.1;;;18.5;46.6
76044;BME280;64740;34.694;33.088;2023-01-08T22:54:40;1041.1;;;18.5;46.6
76044;BME280;64740;34.694;33.088;2023-01-08T23:00:13;1041;;;18.5;47
76044;BME280;64740;34.694;33.088;2023-01-08T23:05:12;1041;;;18.4;46.8
76044;BME280;64740;34.694;33.088;2023-01-08T23:09:58;1041;;;18.4;46.8
76044;BME280;64740;34.694;33.088;2023-01-08T23:14:58;1041;;;18.4;47
76044;BME280;64740;34.694;33.088;2023-01-08T23:20:20;1041;;;18.3;47.1
76044;BME280;64740;34.694;33.088;2023-01-08T23:25:20;1041;;;18.3;47.1
76044;BME280;64740;34.694;33.088;2023-01-08T23:29:48;1041;;;18.3;47.1
76044;BME280;64740;34.694;33.088;2023-01-08T23:34:48;1041;;;18.3;47.2
76044;BME280;64740;34.694;33.088;2023-01-08T23:40:20;1041;;;18.3;47.3
76044;BME280;64740;34.694;33.088;2023-01-08T23:44:40;1041;;;18.3;47.3
76044;BME280;64740;34.694;33.088;2023-01-08T23:50:22;1041;;;18.4;47
76044;BME280;64740;34.694;33.088;2023-01-08T23:55:10;1041;;;18.4;47
76044;BME280;64740;34.694;33.088;2023-01-08T23:59:58;1041.1;;;18.4;46.8
